sensor_id;sensor_type;location;lat;lon;timestamp;temperature;humidity
78520;SHT31;67818;51.986;5.648;2023-04-12T11:01:12;15.6;53.8
78520;SHT31;67818;51.986;5.648;2023-04-12T11:04:06;15.5;54.1
78520;SHT31;67818;51.986;5.648;2023-04-12T11:06:49;15.4;55.0
78520;SHT31;67818;51.986;5.648;2023-04-12T11:09:24;15.4;55.6
78520;SHT31;67818;51.986;5.648;2023-04-12T11:12:14;15.4;56.7
78520;SHT31;67818;51.986;5.648;2023-04-12T11:14:46;15.4;55.2
78520;SHT31;67818;51.986;5.648;2023-04-12T11:17:23;15.4;55.6
78520;SHT31;67818;51.986;5.648;2023-04-12T11:19:56;15.3;54.2
78520;SHT31;67818;51.986;5.648;2023-04-12T11:22:28;15.2;54.9
78520;SHT31;67818;51.986;5.648;2023-04-12T11:25:00;15.1;55.2
78520;SHT31;67818;51.986;5.648;2023-04-12T11:27:34;15.1;54.2
78520;SHT31;67818;51.986;5.648;2023-04-12T11:30:10;15.0;55.9
78520;SHT31;67818;51.986;5.648;2023-04-12T11:32:44;14.9;56.3
78520;SHT31;67818;51.986;5.648;2023-04-12T11:35:15;14.9;56.8
78520;SHT31;67818;51.986;5.648;2023-04-12T11:37:53;14.8;57.2
78520;SHT31;67818;51.986;5.648;2023-04-12T11:40:28;14.8;56.8
78520;SHT31;67818;51.986;5.648;2023-04-12T11:43:00;14.7;52.3
78520;SHT31;67818;51.986;5.648;2023-04-12T11:45:34;14.6;50.4
78520;SHT31;67818;51.986;5.648;2023-04-12T11:48:08;14.4;53.5
78520;SHT31;67818;51.986;5.648;2023-04-12T11:50:40;14.2;54.4
78520;SHT31;67818;51.986;5.648;2023-04-12T11:53:15;14.0;56.7
78520;SHT31;67818;51.986;5.648;2023-04-12T11:55:51;14.0;55.7
78520;SHT31;67818;51.986;5.648;2023-04-12T11:58:25;14.0;57.6
78520;SHT31;67818;51.986;5.648;2023-04-12T12:00:59;14.1;57.6
78520;SHT31;67818;51.986;5.648;2023-04-12T12:03:32;14.2;57.0
78520;SHT31;67818;51.986;5.648;2023-04-12T12:06:03;14.3;56.7
78520;SHT31;67818;51.986;5.648;2023-04-12T12:08:34;14.4;57.2
78520;SHT31;67818;51.986;5.648;2023-04-12T12:43:06;17.9;38.3
78520;SHT31;67818;51.986;5.648;2023-04-12T12:45:37;17.3;38.4
78520;SHT31;67818;51.986;5.648;2023-04-12T12:48:10;17.1;41.2
78520;SHT31;67818;51.986;5.648;2023-04-12T12:53:10;16.9;41.4
78520;SHT31;67818;51.986;5.648;2023-04-12T12:55:41;16.8;42.4
78520;SHT31;67818;51.986;5.648;2023-04-12T12:58:11;16.7;41.7
78520;SHT31;67818;51.986;5.648;2023-04-12T13:00:40;16.6;41.6
78520;SHT31;67818;51.986;5.648;2023-04-12T13:03:10;16.5;40.4
78520;SHT31;67818;51.986;5.648;2023-04-12T13:05:39;16.3;39.9
78520;SHT31;67818;51.986;5.648;2023-04-12T13:08:11;16.1;40.8
78520;SHT31;67818;51.986;5.648;2023-04-12T13:10:43;15.9;40.4
78520;SHT31;67818;51.986;5.648;2023-04-12T13:13:13;15.8;41.3
78520;SHT31;67818;51.986;5.648;2023-04-12T13:24:27;16.8;39.7
78520;SHT31;67818;51.986;5.648;2023-04-12T13:26:55;16.3;41.4
78520;SHT31;67818;51.986;5.648;2023-04-12T13:29:26;16.2;41.1
78520;SHT31;67818;51.986;5.648;2023-04-12T13:34:32;16.0;41.9
78520;SHT31;67818;51.986;5.648;2023-04-12T13:37:02;15.9;41.9
78520;SHT31;67818;51.986;5.648;2023-04-12T13:39:32;15.8;41.8
78520;SHT31;67818;51.986;5.648;2023-04-12T13:42:02;15.7;42.5
78520;SHT31;67818;51.986;5.648;2023-04-12T13:44:32;15.6;42.8
78520;SHT31;67818;51.986;5.648;2023-04-12T13:47:02;15.5;45.2
78520;SHT31;67818;51.986;5.648;2023-04-12T13:49:32;15.4;45.3
78520;SHT31;67818;51.986;5.648;2023-04-12T13:52:04;15.3;43.7
78520;SHT31;67818;51.986;5.648;2023-04-12T13:54:34;15.2;45.6
78520;SHT31;67818;51.986;5.648;2023-04-12T13:57:04;15.1;45.5
78520;SHT31;67818;51.986;5.648;2023-04-12T13:59:36;15.0;45.6
78520;SHT31;67818;51.986;5.648;2023-04-12T14:02:08;14.9;43.9
78520;SHT31;67818;51.986;5.648;2023-04-12T14:04:50;14.8;44.7
78520;SHT31;67818;51.986;5.648;2023-04-12T14:07:21;14.7;45.4
78520;SHT31;67818;51.986;5.648;2023-04-12T14:09:51;14.5;46.0
78520;SHT31;67818;51.986;5.648;2023-04-12T14:12:22;14.4;45.7
78520;SHT31;67818;51.986;5.648;2023-04-12T14:14:52;14.3;46.3
78520;SHT31;67818;51.986;5.648;2023-04-12T14:17:21;14.1;45.9
78520;SHT31;67818;51.986;5.648;2023-04-12T14:19:51;14.0;47.7
78520;SHT31;67818;51.986;5.648;2023-04-12T14:22:22;13.8;47.8
78520;SHT31;67818;51.986;5.648;2023-04-12T14:24:51;13.7;48.9
78520;SHT31;67818;51.986;5.648;2023-04-12T14:27:21;13.6;48.4
78520;SHT31;67818;51.986;5.648;2023-04-12T14:29:51;13.6;48.9
78520;SHT31;67818;51.986;5.648;2023-04-12T14:32:20;13.5;49.9
78520;SHT31;67818;51.986;5.648;2023-04-12T14:34:50;13.4;51.3
78520;SHT31;67818;51.986;5.648;2023-04-12T14:37:20;13.4;50.9
78520;SHT31;67818;51.986;5.648;2023-04-12T14:39:57;13.3;50.8
78520;SHT31;67818;51.986;5.648;2023-04-12T14:42:26;13.3;50.7
78520;SHT31;67818;51.986;5.648;2023-04-12T14:44:57;13.3;52.0
78520;SHT31;67818;51.986;5.648;2023-04-12T14:47:27;13.2;52.3
78520;SHT31;67818;51.986;5.648;2023-04-12T14:49:57;13.2;52.8
78520;SHT31;67818;51.986;5.648;2023-04-12T14:52:27;13.1;52.2
78520;SHT31;67818;51.986;5.648;2023-04-12T14:54:57;13.1;53.4
78520;SHT31;67818;51.986;5.648;2023-04-12T14:57:28;13.1;52.0
78520;SHT31;67818;51.986;5.648;2023-04-12T14:59:59;13.0;52.2
78520;SHT31;67818;51.986;5.648;2023-04-12T15:02:30;13.0;52.8
78520;SHT31;67818;51.986;5.648;2023-04-12T15:05:00;12.9;52.7
78520;SHT31;67818;51.986;5.648;2023-04-12T15:07:33;12.8;53.1
78520;SHT31;67818;51.986;5.648;2023-04-12T15:10:04;12.7;54.0
78520;SHT31;67818;51.986;5.648;2023-04-12T15:12:33;12.6;54.2
78520;SHT31;67818;51.986;5.648;2023-04-12T15:15:04;12.5;54.1
78520;SHT31;67818;51.986;5.648;2023-04-12T15:17:34;12.4;53.8
78520;SHT31;67818;51.986;5.648;2023-04-12T15:20:05;12.3;54.7
78520;SHT31;67818;51.986;5.648;2023-04-12T15:22:39;12.2;55.2
78520;SHT31;67818;51.986;5.648;2023-04-12T15:25:10;12.1;56.1
78520;SHT31;67818;51.986;5.648;2023-04-12T15:27:39;12.0;56.9
78520;SHT31;67818;51.986;5.648;2023-04-12T15:30:11;12.0;56.8
78520;SHT31;67818;51.986;5.648;2023-04-12T15:32:42;11.9;53.9
78520;SHT31;67818;51.986;5.648;2023-04-12T15:35:13;11.9;53.0
78520;SHT31;67818;51.986;5.648;2023-04-12T15:37:45;11.8;53.0
78520;SHT31;67818;51.986;5.648;2023-04-12T15:40:14;11.8;52.2
78520;SHT31;67818;51.986;5.648;2023-04-12T15:42:44;11.7;52.0
78520;SHT31;67818;51.986;5.648;2023-04-12T15:45:16;11.7;52.5
78520;SHT31;67818;51.986;5.648;2023-04-12T15:47:46;11.6;52.2
78520;SHT31;67818;51.986;5.648;2023-04-12T15:50:15;11.6;52.7
78520;SHT31;67818;51.986;5.648;2023-04-12T15:52:46;11.5;53.2
78520;SHT31;67818;51.986;5.648;2023-04-12T15:55:17;11.5;53.9
78520;SHT31;67818;51.986;5.648;2023-04-12T15:57:48;11.5;54.0
78520;SHT31;67818;51.986;5.648;2023-04-12T16:00:19;11.5;54.2
78520;SHT31;67818;51.986;5.648;2023-04-12T16:02:51;11.5;53.8
78520;SHT31;67818;51.986;5.648;2023-04-12T16:05:24;11.5;54.5
78520;SHT31;67818;51.986;5.648;2023-04-12T16:07:54;11.4;55.0
78520;SHT31;67818;51.986;5.648;2023-04-12T16:10:23;11.4;56.2
78520;SHT31;67818;51.986;5.648;2023-04-12T16:12:55;11.5;55.4
78520;SHT31;67818;51.986;5.648;2023-04-12T16:15:24;11.5;55.2
78520;SHT31;67818;51.986;5.648;2023-04-12T16:17:54;11.5;55.4
78520;SHT31;67818;51.986;5.648;2023-04-12T16:20:25;11.6;54.7
78520;SHT31;67818;51.986;5.648;2023-04-12T16:22:55;11.6;54.7
78520;SHT31;67818;51.986;5.648;2023-04-12T16:25:27;11.7;55.1
78520;SHT31;67818;51.986;5.648;2023-04-12T16:27:56;11.7;55.4
78520;SHT31;67818;51.986;5.648;2023-04-12T16:30:30;11.8;54.9
78520;SHT31;67818;51.986;5.648;2023-04-12T16:33:00;11.8;55.0
78520;SHT31;67818;51.986;5.648;2023-04-12T16:35:30;11.9;54.7
78520;SHT31;67818;51.986;5.648;2023-04-12T16:38:01;11.9;54.5
78520;SHT31;67818;51.986;5.648;2023-04-12T16:40:31;12.0;54.4
78520;SHT31;67818;51.986;5.648;2023-04-12T16:43:01;12.0;54.4
78520;SHT31;67818;51.986;5.648;2023-04-12T16:45:32;12.0;54.4
78520;SHT31;67818;51.986;5.648;2023-04-12T16:48:01;12.0;54.2
78520;SHT31;67818;51.986;5.648;2023-04-12T16:50:32;11.9;54.9
78520;SHT31;67818;51.986;5.648;2023-04-12T16:53:03;11.9;54.9
78520;SHT31;67818;51.986;5.648;2023-04-12T16:55:40;11.8;55.0
78520;SHT31;67818;51.986;5.648;2023-04-12T16:58:12;11.7;55.7
78520;SHT31;67818;51.986;5.648;2023-04-12T17:00:42;11.7;56.3
78520;SHT31;67818;51.986;5.648;2023-04-12T17:03:13;11.6;56.3
78520;SHT31;67818;51.986;5.648;2023-04-12T17:05:42;11.6;56.6
78520;SHT31;67818;51.986;5.648;2023-04-12T17:08:12;11.5;57.3
78520;SHT31;67818;51.986;5.648;2023-04-12T17:10:42;11.5;57.7
78520;SHT31;67818;51.986;5.648;2023-04-12T17:13:14;11.5;58.2
78520;SHT31;67818;51.986;5.648;2023-04-12T17:15:49;11.4;58.7
78520;SHT31;67818;51.986;5.648;2023-04-12T17:18:19;11.4;59.0
78520;SHT31;67818;51.986;5.648;2023-04-12T17:20:49;11.4;59.2
78520;SHT31;67818;51.986;5.648;2023-04-12T17:23:18;11.4;59.5
78520;SHT31;67818;51.986;5.648;2023-04-12T17:25:48;11.4;59.6
78520;SHT31;67818;51.986;5.648;2023-04-12T17:28:19;11.4;59.9
78520;SHT31;67818;51.986;5.648;2023-04-12T17:30:50;11.4;60.0
78520;SHT31;67818;51.986;5.648;2023-04-12T17:33:20;11.4;60.3
78520;SHT31;67818;51.986;5.648;2023-04-12T17:35:49;11.4;60.5
78520;SHT31;67818;51.986;5.648;2023-04-12T17:38:19;11.4;60.6
78520;SHT31;67818;51.986;5.648;2023-04-12T17:40:48;11.3;60.5
78520;SHT31;67818;51.986;5.648;2023-04-12T17:43:19;11.3;60.8
78520;SHT31;67818;51.986;5.648;2023-04-12T17:45:53;11.2;61.1
78520;SHT31;67818;51.986;5.648;2023-04-12T17:48:27;11.1;61.4
78520;SHT31;67818;51.986;5.648;2023-04-12T17:50:58;11.1;61.7
78520;SHT31;67818;51.986;5.648;2023-04-12T17:53:31;11.0;62.0
78520;SHT31;67818;51.986;5.648;2023-04-12T17:56:01;10.9;62.1
78520;SHT31;67818;51.986;5.648;2023-04-12T17:58:32;10.9;62.8
78520;SHT31;67818;51.986;5.648;2023-04-12T18:01:04;10.8;63.4
78520;SHT31;67818;51.986;5.648;2023-04-12T18:03:34;10.8;63.7
78520;SHT31;67818;51.986;5.648;2023-04-12T18:06:05;10.7;63.9
78520;SHT31;67818;51.986;5.648;2023-04-12T18:08:43;10.6;64.1
78520;SHT31;67818;51.986;5.648;2023-04-12T18:11:14;10.6;64.6
78520;SHT31;67818;51.986;5.648;2023-04-12T18:13:47;10.5;64.9
78520;SHT31;67818;51.986;5.648;2023-04-12T18:16:20;10.5;65.2
78520;SHT31;67818;51.986;5.648;2023-04-12T18:18:52;10.4;65.5
78520;SHT31;67818;51.986;5.648;2023-04-12T18:21:24;10.3;65.8
78520;SHT31;67818;51.986;5.648;2023-04-12T18:23:56;10.3;66.0
78520;SHT31;67818;51.986;5.648;2023-04-12T18:26:29;10.2;66.2
78520;SHT31;67818;51.986;5.648;2023-04-12T18:28:58;10.2;66.4
78520;SHT31;67818;51.986;5.648;2023-04-12T18:31:31;10.1;66.5
78520;SHT31;67818;51.986;5.648;2023-04-12T18:34:03;10.1;66.6
78520;SHT31;67818;51.986;5.648;2023-04-12T18:36:34;10.1;66.6
78520;SHT31;67818;51.986;5.648;2023-04-12T18:39:09;10.0;67.0
78520;SHT31;67818;51.986;5.648;2023-04-12T18:41:41;10.0;67.1
78520;SHT31;67818;51.986;5.648;2023-04-12T18:44:15;9.9;67.3
78520;SHT31;67818;51.986;5.648;2023-04-12T18:46:46;9.9;67.5
78520;SHT31;67818;51.986;5.648;2023-04-12T18:49:18;9.8;67.8
78520;SHT31;67818;51.986;5.648;2023-04-12T18:51:48;9.8;68.2
78520;SHT31;67818;51.986;5.648;2023-04-12T18:54:26;9.8;68.3
78520;SHT31;67818;51.986;5.648;2023-04-12T18:56:59;9.9;68.2
78520;SHT31;67818;51.986;5.648;2023-04-12T18:59:35;9.9;68.0
78520;SHT31;67818;51.986;5.648;2023-04-12T19:02:07;9.9;67.8
78520;SHT31;67818;51.986;5.648;2023-04-12T19:04:39;9.9;67.9
78520;SHT31;67818;51.986;5.648;2023-04-12T19:07:13;9.9;68.0
78520;SHT31;67818;51.986;5.648;2023-04-12T19:09:44;9.8;68.1
78520;SHT31;67818;51.986;5.648;2023-04-12T19:12:14;9.8;68.6
78520;SHT31;67818;51.986;5.648;2023-04-12T19:14:46;9.7;68.8
78520;SHT31;67818;51.986;5.648;2023-04-12T19:17:18;9.7;69.1
78520;SHT31;67818;51.986;5.648;2023-04-12T19:19:53;9.6;69.5
78520;SHT31;67818;51.986;5.648;2023-04-12T19:22:28;9.6;69.9
78520;SHT31;67818;51.986;5.648;2023-04-12T19:25:00;9.5;70.3
78520;SHT31;67818;51.986;5.648;2023-04-12T19:27:29;9.5;70.7
78520;SHT31;67818;51.986;5.648;2023-04-12T19:30:00;9.4;70.9
78520;SHT31;67818;51.986;5.648;2023-04-12T19:32:30;9.4;71.1
78520;SHT31;67818;51.986;5.648;2023-04-12T19:35:00;9.4;71.3
78520;SHT31;67818;51.986;5.648;2023-04-12T19:37:29;9.4;71.6
78520;SHT31;67818;51.986;5.648;2023-04-12T19:40:00;9.3;71.7
78520;SHT31;67818;51.986;5.648;2023-04-12T19:42:32;9.3;71.8
78520;SHT31;67818;51.986;5.648;2023-04-12T19:45:05;9.3;71.8
78520;SHT31;67818;51.986;5.648;2023-04-12T19:47:37;9.3;71.7
78520;SHT31;67818;51.986;5.648;2023-04-12T19:50:14;9.3;71.8
78520;SHT31;67818;51.986;5.648;2023-04-12T19:52:46;9.3;71.8
78520;SHT31;67818;51.986;5.648;2023-04-12T19:55:16;9.2;71.8
78520;SHT31;67818;51.986;5.648;2023-04-12T19:57:49;9.2;71.8
78520;SHT31;67818;51.986;5.648;2023-04-12T20:00:22;9.2;71.9
78520;SHT31;67818;51.986;5.648;2023-04-12T20:02:54;9.2;71.8
78520;SHT31;67818;51.986;5.648;2023-04-12T20:05:25;9.1;71.8
78520;SHT31;67818;51.986;5.648;2023-04-12T20:07:55;9.1;71.6
78520;SHT31;67818;51.986;5.648;2023-04-12T20:10:28;9.1;71.5
78520;SHT31;67818;51.986;5.648;2023-04-12T20:13:00;9.1;71.4
78520;SHT31;67818;51.986;5.648;2023-04-12T20:15:36;9.0;71.4
78520;SHT31;67818;51.986;5.648;2023-04-12T20:18:09;9.0;71.4
78520;SHT31;67818;51.986;5.648;2023-04-12T20:20:40;9.0;71.0
78520;SHT31;67818;51.986;5.648;2023-04-12T20:23:13;9.0;70.7
78520;SHT31;67818;51.986;5.648;2023-04-12T20:25:43;8.9;70.2
78520;SHT31;67818;51.986;5.648;2023-04-12T20:28:15;8.9;69.8
78520;SHT31;67818;51.986;5.648;2023-04-12T20:30:48;8.9;69.7
78520;SHT31;67818;51.986;5.648;2023-04-12T20:33:22;8.9;69.6
78520;SHT31;67818;51.986;5.648;2023-04-12T20:35:56;8.9;69.3
78520;SHT31;67818;51.986;5.648;2023-04-12T20:38:26;8.9;68.9
78520;SHT31;67818;51.986;5.648;2023-04-12T20:41:01;8.9;68.6
78520;SHT31;67818;51.986;5.648;2023-04-12T20:43:33;8.9;68.2
78520;SHT31;67818;51.986;5.648;2023-04-12T20:46:12;8.9;67.8
78520;SHT31;67818;51.986;5.648;2023-04-12T20:48:48;8.9;67.2
78520;SHT31;67818;51.986;5.648;2023-04-12T20:51:20;8.8;67.2
78520;SHT31;67818;51.986;5.648;2023-04-12T20:53:52;8.8;67.2
78520;SHT31;67818;51.986;5.648;2023-04-12T20:56:30;8.8;67.1
78520;SHT31;67818;51.986;5.648;2023-04-12T20:59:03;8.8;66.7
78520;SHT31;67818;51.986;5.648;2023-04-12T21:01:36;8.8;66.3
78520;SHT31;67818;51.986;5.648;2023-04-12T21:04:08;8.8;66.1
78520;SHT31;67818;51.986;5.648;2023-04-12T21:06:41;8.8;65.6
78520;SHT31;67818;51.986;5.648;2023-04-12T21:09:15;8.8;65.5
78520;SHT31;67818;51.986;5.648;2023-04-12T21:11:46;8.8;64.9
78520;SHT31;67818;51.986;5.648;2023-04-12T21:15:34;9.0;63.3
78520;SHT31;67818;51.986;5.648;2023-04-12T21:18:05;9.0;62.9
78520;SHT31;67818;51.986;5.648;2023-04-12T21:20:35;9.0;62.9
78520;SHT31;67818;51.986;5.648;2023-04-12T21:23:05;9.0;62.6
78520;SHT31;67818;51.986;5.648;2023-04-12T21:25:54;8.9;61.8
78520;SHT31;67818;51.986;5.648;2023-04-12T21:28:25;8.9;61.7
78520;SHT31;67818;51.986;5.648;2023-04-12T21:30:56;8.9;61.6
78520;SHT31;67818;51.986;5.648;2023-04-12T21:33:26;8.9;61.0
78520;SHT31;67818;51.986;5.648;2023-04-12T21:35:56;8.9;61.1
78520;SHT31;67818;51.986;5.648;2023-04-12T21:38:26;8.9;60.9
78520;SHT31;67818;51.986;5.648;2023-04-12T21:41:07;8.9;61.0
78520;SHT31;67818;51.986;5.648;2023-04-12T21:43:38;8.9;61.2
78520;SHT31;67818;51.986;5.648;2023-04-12T21:46:09;8.9;61.0
78520;SHT31;67818;51.986;5.648;2023-04-12T21:48:40;8.9;60.8
78520;SHT31;67818;51.986;5.648;2023-04-12T21:51:09;8.9;60.7
78520;SHT31;67818;51.986;5.648;2023-04-12T21:53:39;9.0;60.1
78520;SHT31;67818;51.986;5.648;2023-04-12T21:56:09;9.0;60.1
78520;SHT31;67818;51.986;5.648;2023-04-12T22:01:30;9.4;58.4
78520;SHT31;67818;51.986;5.648;2023-04-12T22:04:00;9.5;58.5
78520;SHT31;67818;51.986;5.648;2023-04-12T22:06:30;9.5;57.8
78520;SHT31;67818;51.986;5.648;2023-04-12T22:09:00;9.6;57.7
78520;SHT31;67818;51.986;5.648;2023-04-12T22:11:31;9.6;57.9
